Time;durP1;ratioP1;P1;durP2;ratioP2;P2;SDS_P1;SDS_P2;PMS_P1;PMS_P2;Temp;Humidity;BMP_temperature;BMP_pressure;BME280_temperature;BME280_humidity;BME280_pressure;Samples;Min_cycle;Max_cycle;Signal;HPM_P1;HPM_P2
2022/04/30 00:01:13;;;;;;;7.95;5.18;;;;;;;7.41;73.00;102818.84;7386944;19;20029;-57
2022/04/30 00:03:42;;;;;;;12.07;6.20;;;;;;;7.14;73.96;102816.22;7386736;19;20325;-59
2022/04/30 00:06:11;;;;;;;8.20;5.20;;;;;;;7.20;74.83;102824.91;7388619;19;20029;-58
2022/04/30 00:08:40;;;;;;;11.55;5.80;;;;;;;7.20;74.47;102819.69;7386573;19;20357;-60
2022/04/30 00:11:13;;;;;;;10.32;5.65;;;;;;;7.27;73.87;102821.44;7387066;19;20053;-58
2022/04/30 00:13:42;;;;;;;10.25;5.78;;;;;;;7.15;75.16;102817.94;7385410;19;20031;-60
2022/04/30 00:16:10;;;;;;;9.45;5.50;;;;;;;7.08;75.63;102822.28;7386860;19;20017;-55
2022/04/30 00:18:39;;;;;;;11.07;5.85;;;;;;;7.27;74.11;102815.38;7385873;19;20244;-54
2022/04/30 00:21:08;;;;;;;29.23;6.85;;;;;;;7.44;73.43;102818.84;7386583;19;20075;-58
2022/04/30 00:23:37;;;;;;;11.95;5.45;;;;;;;7.49;73.47;102812.78;7385875;19;20011;-54
2022/04/30 00:26:07;;;;;;;11.15;5.85;;;;;;;7.35;73.68;102813.66;7386401;19;20352;-55
2022/04/30 00:28:38;;;;;;;10.38;5.35;;;;;;;7.18;74.57;102816.22;7386286;19;20341;-55
2022/04/30 00:31:07;;;;;;;11.38;6.00;;;;;;;7.04;75.14;102817.91;7385761;19;20010;-54
2022/04/30 00:33:36;;;;;;;8.45;5.53;;;;;;;6.91;75.39;102812.66;7386462;19;20022;-54
2022/04/30 00:36:05;;;;;;;10.13;5.90;;;;;;;7.02;75.56;102812.72;7385902;19;20014;-60
2022/04/30 00:38:34;;;;;;;13.93;6.40;;;;;;;6.88;76.43;102807.44;7386740;19;20110;-58
2022/04/30 00:41:03;;;;;;;10.13;6.40;;;;;;;6.89;76.19;102809.19;7384784;19;20015;-60
2022/04/30 00:43:32;;;;;;;9.35;6.30;;;;;;;6.95;76.58;102804.84;7387338;19;20010;-60
2022/04/30 00:46:04;;;;;;;13.25;6.32;;;;;;;6.73;76.80;102810.88;7392436;19;20021;-61
2022/04/30 00:48:33;;;;;;;10.98;6.75;;;;;;;6.70;77.08;102805.63;7392835;19;20057;-60
2022/04/30 00:51:02;;;;;;;12.20;7.00;;;;;;;6.73;77.21;102805.66;7392725;19;20187;-59
2022/04/30 00:53:33;;;;;;;12.75;6.70;;;;;;;6.87;76.82;102799.63;7392408;19;20023;-59
2022/04/30 00:56:04;;;;;;;13.93;6.72;;;;;;;6.61;77.48;102796.94;7392748;19;20019;-61
2022/04/30 00:58:35;;;;;;;12.10;6.60;;;;;;;6.89;76.87;102790.06;7392904;19;20030;-61
2022/04/30 01:01:07;;;;;;;15.05;6.78;;;;;;;6.76;77.02;102802.19;7392163;19;20147;-58
2022/04/30 01:03:54;;;;;;;13.60;7.00;;;;;;;6.66;77.59;102795.19;7392064;19;20354;-56
2022/04/30 01:06:37;;;;;;;12.40;7.05;;;;;;;6.71;77.31;102798.69;7392587;19;20558;-59
2022/04/30 01:09:06;;;;;;;12.20;7.40;;;;;;;6.65;77.60;102790.84;7391145;19;20023;-58
2022/04/30 01:11:36;;;;;;;13.32;7.15;;;;;;;6.53;78.04;102796.88;7392389;19;20022;-61
2022/04/30 01:14:07;;;;;;;14.15;7.40;;;;;;;6.67;77.93;102794.34;7390050;19;20014;-59
2022/04/30 01:16:38;;;;;;;12.25;7.28;;;;;;;6.64;77.71;102791.72;7392224;19;20015;-59
2022/04/30 01:19:10;;;;;;;13.88;7.78;;;;;;;6.65;78.01;102789.13;7391171;19;20025;-58
2022/04/30 01:21:40;;;;;;;18.65;8.25;;;;;;;6.71;77.91;102789.13;7391689;19;20015;-60
2022/04/30 01:24:12;;;;;;;14.05;7.80;;;;;;;6.64;77.94;102783.91;7389979;19;20022;-60
2022/04/30 01:26:42;;;;;;;13.75;7.93;;;;;;;6.29;79.98;102777.69;7392152;19;20022;-59
2022/04/30 01:29:11;;;;;;;14.07;8.57;;;;;;;6.56;79.22;102782.16;7390972;19;20014;-61
2022/04/30 01:37:25;;;;;;;14.07;8.38;;;;;;;6.48;78.95;102776.03;7391124;19;20023;-60
2022/04/30 01:40:03;;;;;;;15.32;8.43;;;;;;;6.74;77.85;102765.69;7391160;19;20014;-60
2022/04/30 01:42:35;;;;;;;18.83;9.02;;;;;;;6.50;79.02;102766.47;7391473;19;20074;-59
2022/04/30 01:45:05;;;;;;;;;;;;;;;6.48;79.31;102763.00;7388404;19;20022;-59
2022/04/30 01:47:38;;;;;;;15.02;8.63;;;;;;;6.47;79.29;102763.84;7391985;19;19915;-60
2022/04/30 01:50:09;;;;;;;16.38;9.13;;;;;;;6.57;78.47;102769.97;7389992;19;20015;-59
2022/04/30 01:52:38;;;;;;;13.85;8.85;;;;;;;6.58;78.83;102764.78;7393364;19;20015;-60
2022/04/30 01:55:11;;;;;;;16.70;9.38;;;;;;;6.61;79.04;102763.06;7385974;19;20057;-60
2022/04/30 01:57:40;;;;;;;;;;;;;;;6.62;78.67;102762.19;7392727;19;20014;-61
2022/04/30 02:00:12;;;;;;;15.40;9.25;;;;;;;6.86;77.11;102758.78;7390930;19;19918;-61
2022/04/30 02:02:46;;;;;;;15.10;9.00;;;;;;;6.73;77.75;102757.88;7390821;19;20128;-60
2022/04/30 02:05:16;;;;;;;15.88;9.32;;;;;;;6.74;77.77;102759.63;7390340;19;20030;-59
2022/04/30 02:07:51;;;;;;;18.05;9.13;;;;;;;6.87;76.43;102758.78;7390067;19;20085;-58
2022/04/30 02:10:23;;;;;;;17.10;8.93;;;;;;;6.64;77.85;102756.13;7389257;19;20029;-59
2022/04/30 02:12:53;;;;;;;41.80;10.60;;;;;;;6.43;78.99;102753.44;7390264;19;20022;-61
2022/04/30 02:15:23;;;;;;;17.65;8.95;;;;;;;6.30;80.11;102755.09;7388837;19;20021;-56
2022/04/30 02:17:53;;;;;;;14.75;8.82;;;;;;;6.23;79.80;102759.41;7389611;19;20014;-61
2022/04/30 02:20:29;;;;;;;16.75;9.43;;;;;;;6.11;80.93;102752.41;7389681;19;20015;-59
2022/04/30 02:23:01;;;;;;;15.15;8.95;;;;;;;6.34;79.54;102749.91;7389673;19;20236;-57
2022/04/30 02:25:32;;;;;;;16.10;9.50;;;;;;;6.45;78.91;102746.47;7390594;19;20018;-58
2022/04/30 02:28:04;;;;;;;13.55;9.07;;;;;;;6.33;79.49;102745.59;7390422;19;20015;-59
2022/04/30 02:30:35;;;;;;;18.25;9.55;;;;;;;6.17;80.31;102739.41;7389484;19;20070;-59
2022/04/30 02:33:08;;;;;;;18.48;9.77;;;;;;;6.36;79.95;102737.78;7389520;19;20014;-59
2022/04/30 02:35:38;;;;;;;18.40;10.25;;;;;;;6.42;79.20;102736.94;7389153;19;20020;-58
2022/04/30 02:38:10;;;;;;;17.30;10.15;;;;;;;6.65;77.70;102730.94;7389663;19;20632;-58
2022/04/30 02:40:43;;;;;;;21.77;10.85;;;;;;;6.63;77.99;102730.94;7388303;19;20017;-58
2022/04/30 02:43:15;;;;;;;16.42;10.25;;;;;;;6.70;77.52;102730.06;7388244;19;20059;-60
2022/04/30 02:45:45;;;;;;;23.88;10.90;;;;;;;6.58;77.90;102730.06;7390143;19;20019;-60
2022/04/30 02:48:15;;;;;;;19.60;11.18;;;;;;;6.57;78.23;102730.91;7389139;19;20026;-59
2022/04/30 02:50:44;;;;;;;19.42;10.52;;;;;;;6.55;78.28;102724.84;7388218;19;20034;-59
2022/04/30 02:53:13;;;;;;;18.65;10.38;;;;;;;6.51;78.65;102725.69;7388841;19;20018;-57
2022/04/30 02:55:45;;;;;;;19.13;10.38;;;;;;;6.41;79.60;102716.97;7388088;19;20018;-58
2022/04/30 03:00:55;;;;;;;21.08;10.30;;;;;;;6.48;78.93;102721.34;7388296;19;20034;-57
2022/04/30 03:03:33;;;;;;;18.25;10.48;;;;;;;6.47;79.08;102719.59;7388624;19;20029;-59
2022/04/30 03:06:03;;;;;;;17.85;10.52;;;;;;;6.47;78.96;102717.00;7386734;19;20025;-58
2022/04/30 03:08:32;;;;;;;19.58;10.43;;;;;;;6.27;79.58;102716.03;7388449;19;20022;-59
2022/04/30 03:11:04;;;;;;;18.83;10.82;;;;;;;6.28;79.92;102720.41;7387708;19;20048;-59
2022/04/30 03:13:36;;;;;;;18.67;10.20;;;;;;;6.31;80.18;102717.81;7387893;19;20083;-58
2022/04/30 03:24:15;;;;;;;18.80;10.52;;;;;;;6.37;79.48;102715.22;7386278;19;20025;-60
2022/04/30 03:26:48;;;;;;;18.52;10.55;;;;;;;6.37;79.35;102708.25;7387867;19;20010;-60
2022/04/30 03:29:18;;;;;;;19.30;11.00;;;;;;;6.39;78.92;102708.25;7386574;19;20034;-61
2022/04/30 03:31:49;;;;;;;19.00;10.95;;;;;;;6.16;80.38;102711.66;7388330;19;20090;-61
2022/04/30 03:34:18;;;;;;;15.82;9.40;;;;;;;6.02;81.78;102713.34;7386777;19;20056;-61
2022/04/30 03:36:47;;;;;;;17.70;10.30;;;;;;;6.26;80.05;102709.09;7386708;19;20011;-61
2022/04/30 03:39:16;;;;;;;16.23;9.38;;;;;;;6.02;81.50;102705.53;7386178;19;20026;-61
2022/04/30 03:41:47;;;;;;;15.73;9.05;;;;;;;5.82;82.28;102689.78;7388248;19;20023;-60
2022/04/30 03:44:16;;;;;;;17.48;10.35;;;;;;;5.93;81.80;102695.03;7386401;19;20018;-61
2022/04/30 03:46:46;;;;;;;17.02;10.32;;;;;;;6.14;80.62;102697.75;7387709;19;20018;-61
2022/04/30 03:49:15;;;;;;;15.52;10.13;;;;;;;6.06;80.36;102692.53;7386311;19;20038;-61
2022/04/30 03:51:44;;;;;;;17.42;9.85;;;;;;;5.89;81.08;102691.53;7387173;19;20015;-62
2022/04/30 03:54:13;;;;;;;18.70;10.40;;;;;;;5.96;81.51;102690.72;7386330;19;20302;-61
2022/04/30 03:56:42;;;;;;;17.13;10.85;;;;;;;6.17;79.77;102699.50;7386136;19;20014;-62
2022/04/30 03:59:15;;;;;;;19.75;10.90;;;;;;;6.12;79.86;102688.19;7385421;19;20019;-61
2022/04/30 04:01:44;;;;;;;13.93;9.57;;;;;;;5.92;80.85;102694.16;7387935;19;20014;-63
2022/04/30 04:04:13;;;;;;;17.02;9.25;;;;;;;5.93;81.04;102690.72;7385953;19;20452;-61
2022/04/30 04:06:42;;;;;;;14.88;9.90;;;;;;;6.10;80.27;102697.75;7388008;19;20118;-61
2022/04/30 04:09:11;;;;;;;19.15;11.20;;;;;;;5.96;80.52;102698.53;7384442;19;20624;-62
2022/04/30 04:11:40;;;;;;;17.77;10.65;;;;;;;6.06;80.35;102696.84;7388255;19;20026;-61
2022/04/30 04:19:35;;;;;;;14.52;9.50;;;;;;;5.92;80.95;102695.88;7394823;19;20022;-62
2022/04/30 04:22:04;;;;;;;16.55;9.73;;;;;;;5.72;82.08;102696.66;7394707;19;20107;-61
2022/04/30 04:27:15;;;;;;;19.38;10.05;;;;;;;5.43;83.33;102701.63;7394818;19;20006;-60
2022/04/30 04:29:44;;;;;;;15.02;9.70;;;;;;;5.42;83.56;102699.91;7395219;19;20027;-61
2022/04/30 04:32:15;;;;;;;14.50;8.75;;;;;;;5.38;83.47;102699.88;7394800;19;20022;-60
2022/04/30 04:34:44;;;;;;;18.63;9.70;;;;;;;5.32;83.99;102698.97;7392274;19;20014;-61
2022/04/30 04:37:13;;;;;;;15.63;9.75;;;;;;;5.38;83.64;102709.41;7394461;19;20015;-61
2022/04/30 04:39:42;;;;;;;17.98;9.77;;;;;;;5.40;83.94;102694.66;7393902;19;20029;-60
2022/04/30 04:42:11;;;;;;;15.88;9.55;;;;;;;5.59;82.83;102700.91;7394955;19;20367;-61
2022/04/30 04:44:40;;;;;;;20.60;10.40;;;;;;;5.58;82.09;102711.28;7392307;19;20027;-59
2022/04/30 04:47:09;;;;;;;15.75;9.80;;;;;;;5.55;82.43;102706.94;7394140;19;20022;-58
2022/04/30 04:49:41;;;;;;;16.63;9.80;;;;;;;5.49;83.14;102719.91;7393678;19;20078;-60
2022/04/30 04:52:11;;;;;;;16.47;9.17;;;;;;;5.38;83.94;102705.06;7393709;19;20015;-58
2022/04/30 04:54:40;;;;;;;16.48;9.48;;;;;;;5.38;84.05;102717.19;7391802;19;20270;-57
2022/04/30 04:57:09;;;;;;;17.42;9.32;;;;;;;5.46;84.07;102717.25;7391041;19;20011;-58
2022/04/30 04:59:38;;;;;;;15.88;9.73;;;;;;;5.62;83.76;102723.47;7393358;19;20018;-60
2022/04/30 05:02:07;;;;;;;14.38;9.43;;;;;;;5.76;83.18;102721.81;7394261;19;20014;-58
2022/04/30 05:04:36;;;;;;;18.48;9.52;;;;;;;5.76;83.29;102724.44;7391898;19;20078;-61
2022/04/30 05:07:08;;;;;;;64.25;40.72;;;;;;;6.05;81.67;102719.41;7393552;19;20017;-58
2022/04/30 05:09:37;;;;;;;13.95;9.68;;;;;;;6.20;80.45;102716.03;7391638;19;20025;-58
2022/04/30 05:12:07;;;;;;;20.33;10.43;;;;;;;6.09;81.24;102719.41;7393114;19;20111;-59
2022/04/30 05:14:37;;;;;;;15.07;9.45;;;;;;;6.17;80.92;102729.00;7390122;19;20038;-61
2022/04/30 05:17:08;;;;;;;15.25;9.77;;;;;;;6.27;80.64;102726.47;7389838;19;20046;-58
2022/04/30 05:19:37;;;;;;;19.02;9.60;;;;;;;6.14;81.29;102726.38;7391126;19;20049;-62
2022/04/30 05:22:09;;;;;;;17.33;10.10;;;;;;;6.28;81.04;102726.47;7397359;19;20459;-60
2022/04/30 05:24:38;;;;;;;15.30;9.13;;;;;;;6.22;81.51;102724.69;7390302;19;20025;-61
2022/04/30 05:27:08;;;;;;;14.85;9.40;;;;;;;6.54;79.86;102721.34;7392702;19;20030;-60
2022/04/30 05:29:37;;;;;;;15.20;9.48;;;;;;;6.66;79.84;102730.97;7391487;19;20014;-60
2022/04/30 05:32:07;;;;;;;14.93;8.90;;;;;;;6.65;79.64;102726.59;7393491;19;20407;-61
2022/04/30 05:34:36;;;;;;;18.23;9.32;;;;;;;6.74;79.30;102717.94;7391216;19;20014;-63
2022/04/30 05:37:05;;;;;;;16.85;9.50;;;;;;;6.70;79.45;102724.88;7390079;19;20014;-61
2022/04/30 05:39:37;;;;;;;16.98;8.75;;;;;;;6.80;78.92;102725.75;7392698;19;20480;-62
2022/04/30 05:42:07;;;;;;;19.02;9.50;;;;;;;6.87;78.46;102726.66;7392028;19;20499;-62
2022/04/30 05:44:36;;;;;;;14.82;8.52;;;;;;;6.73;79.57;102729.22;7390458;19;20362;-61
2022/04/30 05:47:05;;;;;;;15.40;8.68;;;;;;;6.70;80.65;102729.22;7391125;19;20014;-61
2022/04/30 05:49:34;;;;;;;14.68;9.20;;;;;;;6.89;79.56;102725.81;7389893;19;20033;-61
2022/04/30 05:52:03;;;;;;;12.73;8.63;;;;;;;7.03;79.47;102728.41;7392109;19;20345;-61
2022/04/30 05:54:32;;;;;;;13.68;8.57;;;;;;;7.23;78.07;102725.81;7388867;19;20022;-58
2022/04/30 05:57:03;;;;;;;13.43;8.30;;;;;;;7.34;78.00;102727.59;7393705;19;20014;-60
2022/04/30 05:59:32;;;;;;;13.35;8.45;;;;;;;7.26;78.53;102720.63;7391096;19;20015;-60
2022/04/30 06:02:01;;;;;;;14.52;8.73;;;;;;;7.44;77.56;102716.28;7394014;19;20014;-60
2022/04/30 06:04:30;;;;;;;14.80;8.57;;;;;;;7.47;78.82;102720.63;7389858;19;20037;-64
2022/04/30 06:07:00;;;;;;;18.13;8.23;;;;;;;7.44;79.36;102729.31;7391770;19;20014;-61
2022/04/30 06:09:29;;;;;;;17.50;8.65;;;;;;;7.54;78.36;102727.56;7390485;19;20026;-60
2022/04/30 06:11:58;;;;;;;17.13;7.93;;;;;;;7.65;78.54;102724.94;7391187;19;20017;-59
2022/04/30 06:14:29;;;;;;;21.60;8.73;;;;;;;7.53;78.24;102726.69;7390349;19;20440;-58
2022/04/30 06:16:59;;;;;;;13.80;7.18;;;;;;;7.73;77.54;102718.84;7388880;19;20026;-60
2022/04/30 06:19:28;;;;;;;9.70;6.65;;;;;;;7.84;77.39;102725.78;7389518;19;20824;-60
2022/04/30 06:21:57;;;;;;;12.95;6.82;;;;;;;7.71;77.47;102719.69;7391552;19;20018;-61
2022/04/30 06:24:27;;;;;;;11.70;6.80;;;;;;;7.85;77.14;102717.97;7390428;19;20034;-59
2022/04/30 06:26:56;;;;;;;12.93;6.68;;;;;;;8.02;76.55;102722.25;7393915;19;20119;-60
2022/04/30 06:29:25;;;;;;;14.88;7.05;;;;;;;8.12;75.92;102726.56;7393872;19;20449;-60
2022/04/30 06:31:57;;;;;;;11.75;7.45;;;;;;;8.13;76.18;102725.72;7389756;19;20438;-61
2022/04/30 06:34:26;;;;;;;13.40;6.75;;;;;;;8.13;75.74;102725.72;7390344;19;20510;-59
2022/04/30 06:36:55;;;;;;;10.05;7.28;;;;;;;8.19;75.57;102727.44;7390087;19;20014;-61
2022/04/30 06:39:24;;;;;;;18.38;7.05;;;;;;;8.25;75.10;102725.69;7389179;19;20018;-60
2022/04/30 06:41:52;;;;;;;10.85;7.25;;;;;;;8.19;75.24;102723.06;7389188;19;20021;-60
2022/04/30 06:44:21;;;;;;;12.18;7.63;;;;;;;8.27;74.93;102720.44;7392722;19;20018;-61
2022/04/30 06:47:14;;;;;;;11.43;7.00;;;;;;;8.41;74.43;102712.53;7391672;19;20022;-60
2022/04/30 06:49:43;;;;;;;;;;;;;;;8.52;73.65;102717.75;7392150;19;20018;-59
2022/04/30 06:52:12;;;;;;;8.38;6.18;;;;;;;8.74;73.32;102724.59;7392134;19;19932;-59
2022/04/30 06:57:34;;;;;;;;;;;;;;;8.91;71.52;102714.03;7388810;19;20014;-60
2022/04/30 07:01:24;;;;;;;9.60;5.93;;;;;;;9.10;71.24;102719.16;7391052;19;19923;-60
2022/04/30 07:02:55;;;;;;;11.60;6.10;;;;;;;9.27;70.20;102729.44;7391454;19;20006;-61
2022/04/30 07:05:24;;;;;;;8.13;5.60;;;;;;;9.38;69.50;102721.53;7391719;19;20029;-60
2022/04/30 07:07:53;;;;;;;11.23;5.57;;;;;;;9.55;68.52;102713.53;7391803;19;20321;-59
2022/04/30 07:10:22;;;;;;;10.35;5.82;;;;;;;9.58;68.57;102714.34;7389761;19;20038;-60
2022/04/30 07:12:51;;;;;;;8.82;6.13;;;;;;;9.56;68.87;102705.66;7390743;19;20206;-62
2022/04/30 07:15:20;;;;;;;8.65;5.90;;;;;;;9.62;69.04;102713.44;7389228;19;20365;-62
2022/04/30 07:17:49;;;;;;;9.68;5.80;;;;;;;9.64;69.29;102716.94;7390410;19;20022;-62
2022/04/30 07:20:20;;;;;;;9.48;5.95;;;;;;;9.79;68.29;102715.03;7388238;19;20046;-61
2022/04/30 07:22:49;;;;;;;11.95;6.57;;;;;;;9.75;68.38;102711.56;7391636;19;20015;-62
2022/04/30 07:25:18;;;;;;;11.18;6.07;;;;;;;9.79;67.61;102713.28;7390625;19;20022;-59
2022/04/30 07:27:47;;;;;;;11.35;6.60;;;;;;;9.89;66.69;102713.19;7391030;19;20011;-61
2022/04/30 07:30:16;;;;;;;10.02;6.30;;;;;;;9.89;67.83;102718.44;7389424;19;20010;-62
2022/04/30 07:32:45;;;;;;;13.48;6.22;;;;;;;10.08;66.31;102719.09;7390235;19;20026;-60
2022/04/30 07:35:13;;;;;;;10.75;6.05;;;;;;;10.19;64.64;102714.59;7388278;19;20021;-59
2022/04/30 07:37:45;;;;;;;7.53;5.47;;;;;;;10.28;63.48;102716.22;7388939;19;20029;-60
2022/04/30 07:40:14;;;;;;;11.52;5.85;;;;;;;10.29;64.31;102708.34;7389281;19;20413;-61
2022/04/30 07:42:43;;;;;;;9.65;5.78;;;;;;;10.39;64.06;102702.13;7389165;19;20022;-61
2022/04/30 07:45:13;;;;;;;9.55;5.18;;;;;;;10.61;64.13;102707.06;7389643;19;20021;-59
2022/04/30 07:47:41;;;;;;;8.57;5.22;;;;;;;10.76;62.06;102707.75;7389681;19;20015;-59
2022/04/30 07:50:11;;;;;;;6.00;4.50;;;;;;;10.74;61.44;102699.91;7388193;19;20021;-61
2022/04/30 07:52:40;;;;;;;7.38;4.45;;;;;;;10.82;60.05;102702.44;7390123;19;20021;-62
2022/04/30 07:55:12;;;;;;;8.40;4.45;;;;;;;10.71;60.71;102699.94;7387809;19;20074;-61
2022/04/30 07:57:41;;;;;;;;;;;;;;;10.77;60.02;102704.22;7389640;19;20010;-61
2022/04/30 08:00:12;;;;;;;8.02;5.15;;;;;;;10.64;60.73;102696.53;7388667;19;19933;-60
2022/04/30 08:02:42;;;;;;;9.13;4.68;;;;;;;10.73;59.52;102708.66;7389952;19;20025;-61
2022/04/30 08:05:11;;;;;;;8.77;4.65;;;;;;;10.47;60.77;102698.53;7388420;19;20022;-61
2022/04/30 08:07:40;;;;;;;11.02;5.20;;;;;;;10.56;61.46;102696.66;7390602;19;20014;-60
2022/04/30 08:10:12;;;;;;;7.50;4.88;;;;;;;10.37;61.33;102693.44;7389224;19;20110;-60
2022/04/30 08:12:40;;;;;;;13.07;6.05;;;;;;;10.37;61.87;102693.44;7389268;19;20658;-61
2022/04/30 08:15:11;;;;;;;16.15;7.20;;;;;;;10.29;63.74;102690.00;7385552;19;20025;-60
2022/04/30 08:17:40;;;;;;;19.15;7.72;;;;;;;10.25;64.62;102692.69;7387712;19;20026;-56
2022/04/30 08:20:11;;;;;;;16.38;7.63;;;;;;;10.29;65.51;102692.63;7388391;19;20418;-56
2022/04/30 08:22:40;;;;;;;13.35;8.35;;;;;;;10.33;65.19;102696.06;7389601;19;20472;-57
2022/04/30 08:25:12;;;;;;;12.65;7.53;;;;;;;10.33;65.13;102698.66;7387572;19;20018;-56
2022/04/30 08:27:41;;;;;;;15.02;7.78;;;;;;;10.31;65.14;102697.84;7389931;19;20298;-57
2022/04/30 08:30:12;;;;;;;11.23;7.72;;;;;;;10.27;65.14;102697.00;7388325;19;20033;-60
2022/04/30 08:32:41;;;;;;;12.35;7.57;;;;;;;10.26;66.44;102697.91;7388862;19;20024;-60
2022/04/30 08:35:10;;;;;;;14.75;8.27;;;;;;;10.34;65.12;102697.81;7386494;19;20026;-61
2022/04/30 08:37:39;;;;;;;15.27;7.60;;;;;;;10.39;64.54;102693.41;7388819;19;20018;-57
2022/04/30 08:40:12;;;;;;;17.02;7.38;;;;;;;10.47;63.68;102695.91;7388163;19;20455;-59
2022/04/30 08:42:41;;;;;;;;;;;;;;;10.43;63.09;102700.34;7388565;19;20010;-58
2022/04/30 08:45:12;;;;;;;14.48;6.75;;;;;;;10.47;64.12;102693.28;7389362;19;19918;-61
2022/04/30 08:47:43;;;;;;;11.70;6.80;;;;;;;10.59;63.51;102693.13;7391406;19;20018;-53
2022/04/30 08:50:13;;;;;;;10.75;7.05;;;;;;;10.68;62.44;102692.13;7388741;19;20019;-53
2022/04/30 08:52:42;;;;;;;11.20;6.50;;;;;;;10.65;62.05;102692.19;7388768;19;20018;-57
2022/04/30 08:55:14;;;;;;;10.63;6.50;;;;;;;10.68;62.40;102689.50;7386261;19;20014;-57
2022/04/30 08:57:43;;;;;;;13.88;6.93;;;;;;;10.68;62.92;102689.50;7386927;19;20018;-58
2022/04/30 09:00:13;;;;;;;57.65;9.73;;;;;;;10.67;62.93;102688.63;7386765;19;20035;-55
2022/04/30 09:02:51;;;;;;;12.35;7.20;;;;;;;10.59;62.92;102687.88;7388560;19;20022;-57
2022/04/30 09:05:20;;;;;;;9.95;6.63;;;;;;;10.76;62.97;102677.16;7394109;19;20010;-59
2022/04/30 09:07:56;;;;;;;10.52;6.00;;;;;;;10.98;61.28;102674.19;7394891;19;20017;-58
2022/04/30 09:10:30;;;;;;;10.50;6.53;;;;;;;10.97;61.27;102677.69;7393799;19;20459;-59
2022/04/30 09:13:07;;;;;;;88.60;10.85;;;;;;;10.67;61.50;102672.88;7395235;19;20448;-61
2022/04/30 09:15:37;;;;;;;12.48;6.65;;;;;;;10.77;62.01;102675.41;7394346;19;20015;-58
2022/04/30 09:18:08;;;;;;;15.88;7.20;;;;;;;10.98;61.48;102675.06;7392405;19;20018;-55
2022/04/30 09:20:48;;;;;;;17.25;6.63;;;;;;;10.87;60.86;102670.00;7393705;19;20078;-58
2022/04/30 09:23:27;;;;;;;7.80;5.68;;;;;;;11.05;60.01;102671.44;7393696;19;20019;-62
2022/04/30 09:26:00;;;;;;;13.43;6.57;;;;;;;10.83;59.35;102670.03;7394012;19;20087;-61
2022/04/30 09:28:30;;;;;;;10.88;6.72;;;;;;;10.77;59.93;102655.28;7394235;19;20014;-61
2022/04/30 09:31:09;;;;;;;8.55;5.50;;;;;;;11.06;60.18;102665.31;7392551;19;20110;-62
2022/04/30 09:33:39;;;;;;;11.65;5.70;;;;;;;11.38;59.33;102656.00;7394378;19;20034;-61
2022/04/30 09:38:52;;;;;;;8.07;4.63;;;;;;;11.73;55.35;102649.25;7393740;19;20086;-62
2022/04/30 09:41:28;;;;;;;9.10;5.22;;;;;;;11.62;55.54;102659.09;7392962;19;20019;-61
2022/04/30 09:44:04;;;;;;;7.47;5.32;;;;;;;11.55;56.13;102652.22;7392187;19;20803;-62
2022/04/30 09:46:36;;;;;;;12.00;5.97;;;;;;;11.38;57.61;102653.38;7393756;19;20459;-61
2022/04/30 09:54:41;;;;;;;10.90;6.93;;;;;;;11.12;58.81;102650.34;7392113;19;20026;-58
2022/04/30 09:57:16;;;;;;;12.95;6.72;;;;;;;10.94;58.87;102652.38;7392793;19;20035;-59
2022/04/30 09:59:46;;;;;;;12.77;6.68;;;;;;;11.00;58.93;102648.78;7392115;19;20018;-55
2022/04/30 10:02:17;;;;;;;8.52;6.60;;;;;;;11.04;58.91;102645.22;7393745;19;20018;-62
2022/04/30 10:04:46;;;;;;;13.15;6.90;;;;;;;10.95;58.47;102642.78;7391934;19;20623;-61
2022/04/30 10:07:18;;;;;;;9.00;6.63;;;;;;;11.08;57.94;102637.28;7393094;19;20021;-62
2022/04/30 10:10:01;;;;;;;11.25;7.05;;;;;;;11.14;58.73;102638.94;7391873;19;20093;-62
2022/04/30 10:12:37;;;;;;;16.27;7.70;;;;;;;11.17;58.19;102638.88;7392137;19;20078;-61
2022/04/30 10:15:16;;;;;;;10.45;6.88;;;;;;;10.99;58.49;102647.94;7387676;19;20015;-62
2022/04/30 10:17:48;;;;;;;12.13;7.10;;;;;;;10.84;59.55;102641.16;7390915;19;20015;-61
2022/04/30 10:20:29;;;;;;;14.20;7.43;;;;;;;10.76;60.03;102636.94;7391793;19;20014;-62
2022/04/30 10:22:59;;;;;;;18.75;7.82;;;;;;;10.68;60.16;102643.16;7392345;19;20033;-62
2022/04/30 10:25:35;;;;;;;11.25;7.30;;;;;;;10.73;60.45;102637.84;7392703;19;20129;-61
2022/04/30 10:28:21;;;;;;;12.75;8.18;;;;;;;10.61;60.87;102641.53;7391743;19;20018;-62
2022/04/30 10:31:01;;;;;;;16.73;7.85;;;;;;;10.68;60.68;102637.94;7392959;19;20019;-58
2022/04/30 10:33:31;;;;;;;14.02;8.15;;;;;;;10.71;60.70;102632.63;7391680;19;20022;-60
2022/04/30 10:36:08;;;;;;;14.45;8.73;;;;;;;10.80;60.22;102638.63;7392409;19;20360;-60
2022/04/30 10:38:38;;;;;;;13.95;8.23;;;;;;;10.77;60.74;102629.03;7390704;19;20048;-59
2022/04/30 10:41:09;;;;;;;18.48;8.23;;;;;;;10.80;59.90;102633.38;7392172;19;20010;-60
2022/04/30 10:43:42;;;;;;;13.35;9.00;;;;;;;10.76;60.25;102623.84;7391272;19;20023;-61
2022/04/30 10:46:22;;;;;;;20.80;9.30;;;;;;;10.72;61.34;102618.63;7393293;19;20409;-62
2022/04/30 10:48:51;;;;;;;12.18;8.05;;;;;;;10.75;61.13;102624.75;7392730;19;20692;-61
2022/04/30 10:51:40;;;;;;;15.52;7.60;;;;;;;10.76;60.97;102622.09;7391729;19;20015;-62
2022/04/30 10:54:13;;;;;;;14.13;7.13;;;;;;;10.70;60.84;102623.06;7391067;19;20019;-61
2022/04/30 10:56:42;;;;;;;11.90;7.47;;;;;;;10.62;60.86;102624.94;7391351;19;20568;-64
2022/04/30 10:59:26;;;;;;;10.43;6.97;;;;;;;10.77;59.85;102623.81;7386810;19;20321;-61
2022/04/30 11:01:55;;;;;;;15.13;7.25;;;;;;;10.81;59.82;102617.63;7391256;19;20035;-61
2022/04/30 11:04:25;;;;;;;11.40;7.30;;;;;;;10.88;59.01;102619.25;7389854;19;20487;-60
2022/04/30 11:06:56;;;;;;;12.75;6.85;;;;;;;10.98;58.58;102619.13;7390542;19;20025;-61
2022/04/30 11:09:25;;;;;;;9.77;6.40;;;;;;;11.05;58.66;102615.50;7390354;19;20022;-60
2022/04/30 11:11:54;;;;;;;13.10;7.45;;;;;;;10.92;59.49;102614.84;7392591;19;20459;-61
2022/04/30 11:14:26;;;;;;;11.02;6.80;;;;;;;10.90;59.72;102613.97;7388545;19;20011;-60
2022/04/30 11:16:55;;;;;;;13.55;7.00;;;;;;;10.99;59.30;102616.47;7391439;19;20018;-58
2022/04/30 11:19:25;;;;;;;10.27;6.70;;;;;;;11.03;59.58;102623.38;7390230;19;20374;-58
2022/04/30 11:21:56;;;;;;;16.45;7.75;;;;;;;11.07;59.04;102616.31;7389897;19;20480;-60
2022/04/30 11:24:26;;;;;;;11.00;6.95;;;;;;;11.01;59.21;102614.66;7388950;19;20105;-58
2022/04/30 11:26:58;;;;;;;12.70;7.30;;;;;;;11.21;58.53;102605.59;7389758;19;20030;-61
2022/04/30 11:29:30;;;;;;;15.77;7.07;;;;;;;11.37;57.88;102614.03;7388858;19;20302;-60
2022/04/30 11:32:00;;;;;;;10.40;6.77;;;;;;;11.23;58.67;102611.66;7390190;19;20015;-60
2022/04/30 11:34:29;;;;;;;14.13;7.63;;;;;;;11.28;57.87;102603.72;7388136;19;20019;-60
2022/04/30 11:37:00;;;;;;;11.10;7.05;;;;;;;11.42;57.90;102599.94;7390153;19;20021;-60
2022/04/30 11:39:30;;;;;;;78.80;11.88;;;;;;;11.32;58.65;102600.13;7387555;19;20014;-59
2022/04/30 11:42:02;;;;;;;11.38;6.93;;;;;;;11.40;57.93;102599.13;7389562;19;20025;-60
2022/04/30 11:44:33;;;;;;;10.27;6.18;;;;;;;11.72;56.73;102594.97;7388267;19;20023;-59
2022/04/30 11:47:02;;;;;;;9.55;5.93;;;;;;;11.73;56.21;102594.09;7389429;19;20033;-58
2022/04/30 11:49:31;;;;;;;9.25;5.90;;;;;;;11.70;54.81;102593.28;7388499;19;20018;-59
2022/04/30 11:52:01;;;;;;;8.80;5.57;;;;;;;11.81;54.57;102588.66;7390406;19;20007;-59
2022/04/30 11:54:31;;;;;;;8.13;5.47;;;;;;;11.75;53.42;102588.81;7388103;19;20022;-59
2022/04/30 11:57:02;;;;;;;7.45;5.32;;;;;;;11.80;54.16;102586.06;7389814;19;20347;-60
2022/04/30 11:59:36;;;;;;;10.85;5.28;;;;;;;11.78;54.19;102586.09;7387477;19;20023;-60
2022/04/30 12:02:07;;;;;;;8.50;5.32;;;;;;;11.96;53.92;102586.63;7390111;19;20321;-57
2022/04/30 12:04:41;;;;;;;8.68;5.45;;;;;;;11.75;53.87;102579.16;7387356;19;20848;-58
2022/04/30 12:07:12;;;;;;;8.18;5.30;;;;;;;11.84;54.60;102585.13;7390011;19;20134;-56
2022/04/30 12:09:47;;;;;;;7.18;5.43;;;;;;;12.05;53.97;102579.44;7389011;19;20025;-61
2022/04/30 12:12:19;;;;;;;43.60;9.00;;;;;;;12.12;53.69;102574.88;7389853;19;20472;-59
2022/04/30 12:14:51;;;;;;;11.43;6.30;;;;;;;11.84;54.00;102564.09;7388340;19;20506;-57
2022/04/30 12:17:21;;;;;;;9.35;6.50;;;;;;;12.01;54.65;102569.88;7389468;19;20018;-58